createdAt,value
2018-03-16T00:00:51.676Z,981.32
2018-03-16T00:01:56.714Z,981.29
2018-03-16T00:03:02.872Z,981.31
2018-03-16T00:04:08.950Z,981.32
2018-03-16T00:05:15.159Z,981.31
2018-03-16T00:06:22.256Z,981.32
2018-03-16T00:07:27.333Z,981.29
2018-03-16T00:08:33.439Z,981.27
2018-03-16T00:09:39.555Z,981.25
2018-03-16T00:10:46.810Z,981.28
2018-03-16T00:11:51.857Z,981.29
2018-03-16T00:12:58.975Z,981.28
2018-03-16T00:14:04.146Z,981.30
2018-03-16T00:15:10.222Z,981.31
2018-03-16T00:16:16.406Z,981.29
2018-03-16T00:17:22.525Z,981.29
2018-03-16T00:18:28.970Z,981.29
2018-03-16T00:19:34.758Z,981.31
2018-03-16T00:20:40.968Z,981.33
2018-03-16T00:21:47.020Z,981.30
2018-03-16T00:22:53.162Z,981.34
2018-03-16T00:23:59.617Z,981.34
2018-03-16T00:25:04.964Z,981.36
2018-03-16T00:26:11.552Z,981.35
2018-03-16T00:27:17.686Z,981.38
2018-03-16T00:28:23.807Z,981.42
2018-03-16T00:29:29.968Z,981.41
2018-03-16T00:30:36.069Z,981.47
2018-03-16T00:31:42.213Z,981.49
2018-03-16T00:32:48.334Z,981.52
2018-03-16T00:33:54.456Z,981.47
2018-03-16T00:35:00.129Z,981.50
2018-03-16T00:36:06.741Z,981.52
2018-03-16T00:37:12.865Z,981.51
2018-03-16T00:38:18.992Z,981.52
2018-03-16T00:39:25.201Z,981.50
2018-03-16T00:40:31.276Z,981.50
2018-03-16T00:41:37.403Z,981.47
2018-03-16T00:42:43.497Z,981.44
2018-03-16T00:43:49.658Z,981.43
2018-03-16T00:44:55.794Z,981.44
2018-03-16T00:46:02.962Z,981.42
2018-03-16T00:47:08.078Z,981.42
2018-03-16T00:48:14.133Z,981.38
2018-03-16T00:49:20.284Z,981.40
2018-03-16T00:50:26.466Z,981.38
2018-03-16T00:51:32.552Z,981.43
2018-03-16T00:52:38.730Z,981.43
2018-03-16T00:53:44.812Z,981.46
2018-03-16T00:54:50.950Z,981.49
2018-03-16T00:55:57.099Z,981.49
2018-03-16T00:57:03.213Z,981.51
2018-03-16T00:58:10.334Z,981.52
2018-03-16T00:59:15.485Z,981.58
2018-03-16T01:00:21.594Z,981.59
2018-03-16T01:01:27.778Z,981.59
2018-03-16T01:02:33.899Z,981.60
2018-03-16T01:03:40.016Z,981.61
2018-03-16T01:04:46.138Z,981.61
2018-03-16T01:05:52.298Z,981.58
2018-03-16T01:06:58.394Z,981.62
2018-03-16T01:08:04.616Z,981.61
2018-03-16T01:09:10.696Z,981.58
2018-03-16T01:10:17.787Z,981.59
2018-03-16T01:11:22.993Z,981.60
2018-03-16T01:12:29.052Z,981.61
2018-03-16T01:13:35.196Z,981.67
2018-03-16T01:14:41.333Z,981.65
2018-03-16T01:15:47.486Z,981.67
2018-03-16T01:16:53.589Z,981.67
2018-03-16T01:17:59.732Z,981.68
2018-03-16T01:19:05.856Z,981.73
2018-03-16T01:20:11.995Z,981.70
2018-03-16T01:21:18.131Z,981.71
2018-03-16T01:22:25.320Z,981.72
2018-03-16T01:23:30.366Z,981.71
2018-03-16T01:24:36.521Z,981.72
2018-03-16T01:25:42.664Z,981.71
2018-03-16T01:26:48.761Z,981.75
2018-03-16T01:27:54.934Z,981.74
2018-03-16T01:29:01.029Z,981.71
2018-03-16T01:30:07.173Z,981.70
2018-03-16T01:31:13.321Z,981.68
2018-03-16T01:32:19.413Z,981.65
2018-03-16T01:33:26.561Z,981.63
2018-03-16T01:34:31.399Z,981.63
2018-03-16T01:35:37.838Z,981.62
2018-03-16T01:36:43.973Z,981.61
2018-03-16T01:37:50.072Z,981.61
2018-03-16T01:38:56.217Z,981.59
2018-03-16T01:40:02.328Z,981.58
2018-03-16T01:41:08.479Z,981.56
2018-03-16T01:42:14.594Z,981.57
2018-03-16T01:43:20.720Z,981.53
2018-03-16T01:44:27.008Z,981.55
2018-03-16T01:45:32.980Z,981.53
2018-03-16T01:46:38.624Z,981.49
2018-03-16T01:47:45.289Z,981.50
2018-03-16T01:48:51.371Z,981.49
2018-03-16T01:49:57.491Z,981.53
2018-03-16T01:51:03.632Z,981.57
2018-03-16T01:52:09.764Z,981.51
2018-03-16T01:53:15.870Z,981.53
2018-03-16T01:54:22.019Z,981.56
2018-03-16T01:55:28.147Z,981.56
2018-03-16T01:56:34.302Z,981.55
2018-03-16T01:57:40.394Z,981.59
2018-03-16T01:58:47.065Z,981.60
2018-03-16T01:59:52.668Z,981.63
2018-03-16T02:00:58.809Z,981.60
2018-03-16T02:02:04.915Z,981.62
2018-03-16T02:03:11.092Z,981.63
2018-03-16T02:04:17.206Z,981.61
2018-03-16T02:05:23.327Z,981.63
2018-03-16T02:06:29.473Z,981.62
2018-03-16T02:07:35.577Z,981.63
2018-03-16T02:08:41.712Z,981.59
2018-03-16T02:09:47.835Z,981.62
2018-03-16T02:10:54.030Z,981.62
2018-03-16T02:12:01.116Z,981.60
2018-03-16T02:13:06.233Z,981.61
2018-03-16T02:14:12.372Z,981.62
2018-03-16T02:15:18.518Z,981.61
2018-03-16T02:16:24.674Z,981.60
2018-03-16T02:17:30.282Z,981.62
2018-03-16T02:18:36.932Z,981.62
2018-03-16T02:19:43.093Z,981.59
2018-03-16T02:20:49.194Z,981.61
2018-03-16T02:21:55.318Z,981.60
2018-03-16T02:23:01.445Z,981.62
2018-03-16T02:24:07.552Z,981.62
2018-03-16T02:25:13.724Z,981.60
2018-03-16T02:26:19.865Z,981.56
2018-03-16T02:27:25.972Z,981.59
2018-03-16T02:28:32.104Z,981.59
2018-03-16T02:29:38.223Z,981.59
2018-03-16T02:30:44.360Z,981.59
2018-03-16T02:31:50.561Z,981.64
2018-03-16T02:32:56.637Z,981.62
2018-03-16T02:34:02.753Z,981.64
2018-03-16T02:35:08.957Z,981.61
2018-03-16T02:36:14.737Z,981.63
2018-03-16T02:37:21.163Z,981.61
2018-03-16T02:38:27.343Z,981.62
2018-03-16T02:39:33.436Z,981.58
2018-03-16T02:40:40.544Z,981.58
2018-03-16T02:41:45.747Z,981.62
2018-03-16T02:42:51.821Z,981.60
2018-03-16T02:43:57.953Z,981.63
2018-03-16T02:45:04.111Z,981.60
2018-03-16T02:46:10.281Z,981.60
2018-03-16T02:47:16.384Z,981.62
2018-03-16T02:48:22.513Z,981.63
2018-03-16T02:49:28.637Z,981.63
2018-03-16T02:50:34.757Z,981.62
2018-03-16T02:51:40.945Z,981.64
2018-03-16T02:52:47.056Z,981.63
2018-03-16T02:53:53.174Z,981.62
2018-03-16T02:54:59.312Z,981.64
2018-03-16T02:56:05.468Z,981.63
2018-03-16T02:57:11.599Z,981.61
2018-03-16T02:58:17.714Z,981.57
2018-03-16T02:59:23.884Z,981.57
2018-03-16T03:00:30.012Z,981.59
2018-03-16T03:01:36.160Z,981.53
2018-03-16T03:02:42.282Z,981.53
2018-03-16T03:03:48.390Z,981.57
2018-03-16T03:04:54.542Z,981.54
2018-03-16T03:06:00.704Z,981.55
2018-03-16T03:07:06.837Z,981.52
2018-03-16T03:08:12.964Z,981.54
2018-03-16T03:09:19.078Z,981.56
2018-03-16T03:10:25.231Z,981.56
2018-03-16T03:11:31.373Z,981.57
2018-03-16T03:12:37.499Z,981.58
2018-03-16T03:13:43.643Z,981.56
2018-03-16T03:14:49.762Z,981.54
2018-03-16T03:15:55.889Z,981.54
2018-03-16T03:17:02.069Z,981.55
2018-03-16T03:18:08.164Z,981.53
2018-03-16T03:19:14.289Z,981.54
2018-03-16T03:20:20.452Z,981.55
2018-03-16T03:21:26.584Z,981.56
2018-03-16T03:22:32.688Z,981.56
2018-03-16T03:23:38.823Z,981.61
2018-03-16T03:24:44.949Z,981.61
2018-03-16T03:25:51.089Z,981.61
2018-03-16T03:26:57.260Z,981.65
2018-03-16T03:28:03.403Z,981.62
2018-03-16T03:29:09.497Z,981.65
2018-03-16T03:30:15.611Z,981.68
2018-03-16T03:31:22.773Z,981.66
2018-03-16T03:32:27.876Z,981.65
2018-03-16T03:33:34.003Z,981.68
2018-03-16T03:34:40.139Z,981.65
2018-03-16T03:35:46.272Z,981.70
2018-03-16T03:36:52.444Z,981.75
2018-03-16T03:37:58.542Z,981.73
2018-03-16T03:39:04.673Z,981.73
2018-03-16T03:40:10.312Z,981.75
2018-03-16T03:41:16.977Z,981.75
2018-03-16T03:42:23.062Z,981.75
2018-03-16T03:43:29.706Z,981.72
2018-03-16T03:44:35.338Z,981.76
2018-03-16T03:45:41.469Z,981.75
2018-03-16T03:46:47.630Z,981.78
2018-03-16T03:47:53.749Z,981.79
2018-03-16T03:48:59.364Z,981.78
2018-03-16T03:50:06.000Z,981.77
2018-03-16T03:51:12.142Z,981.77
2018-03-16T03:52:18.305Z,981.79
2018-03-16T03:53:25.396Z,981.76
2018-03-16T03:54:30.551Z,981.81
2018-03-16T03:55:36.686Z,981.81
2018-03-16T03:56:42.838Z,981.83
2018-03-16T03:57:48.972Z,981.84
2018-03-16T03:58:55.089Z,981.83
2018-03-16T04:00:01.268Z,981.85
2018-03-16T04:01:07.386Z,981.86
2018-03-16T04:02:13.543Z,981.84
2018-03-16T04:03:19.638Z,981.84
2018-03-16T04:04:25.284Z,981.85
2018-03-16T04:05:31.928Z,981.84
2018-03-16T04:06:38.074Z,981.87
2018-03-16T04:07:44.228Z,981.88
2018-03-16T04:08:50.338Z,981.86
2018-03-16T04:09:56.467Z,981.82
2018-03-16T04:11:02.588Z,981.83
2018-03-16T04:12:08.765Z,981.87
2018-03-16T04:13:14.952Z,981.86
2018-03-16T04:14:21.023Z,981.88
2018-03-16T04:15:27.147Z,981.87
2018-03-16T04:16:34.330Z,981.88
2018-03-16T04:17:39.444Z,981.88
2018-03-16T04:18:45.573Z,981.90
2018-03-16T04:19:51.215Z,981.88
2018-03-16T04:20:57.847Z,981.85
2018-03-16T04:22:04.005Z,981.89
2018-03-16T04:23:10.138Z,981.92
2018-03-16T04:24:15.773Z,981.92
2018-03-16T04:25:22.437Z,981.93
2018-03-16T04:26:28.571Z,981.91
2018-03-16T04:27:34.697Z,981.93
2018-03-16T04:28:40.823Z,981.91
2018-03-16T04:29:46.966Z,981.91
2018-03-16T04:30:53.090Z,981.92
2018-03-16T04:31:59.249Z,981.91
2018-03-16T04:33:05.377Z,981.90
2018-03-16T04:34:11.520Z,981.92
2018-03-16T04:35:17.662Z,981.92
2018-03-16T04:36:23.304Z,981.91
2018-03-16T04:37:29.961Z,981.91
2018-03-16T04:38:36.055Z,981.89
2018-03-16T04:39:42.204Z,981.91
2018-03-16T04:40:48.358Z,981.95
2018-03-16T04:41:54.494Z,981.93
2018-03-16T04:43:00.630Z,981.93
2018-03-16T04:44:06.757Z,981.93
2018-03-16T04:45:12.926Z,981.91
2018-03-16T04:47:25.189Z,981.92
2018-03-16T04:48:31.303Z,981.91
2018-03-16T04:49:37.452Z,981.92
2018-03-16T04:50:43.581Z,981.95
2018-03-16T04:51:49.747Z,981.91
2018-03-16T04:52:56.933Z,981.94
2018-03-16T04:54:01.994Z,981.96
2018-03-16T04:55:08.131Z,981.93
2018-03-16T04:56:14.274Z,981.96
2018-03-16T04:57:20.421Z,981.96
2018-03-16T04:58:26.550Z,981.95
2018-03-16T04:59:32.687Z,981.96
2018-03-16T05:00:38.939Z,981.92
2018-03-16T05:01:44.988Z,981.96
2018-03-16T05:02:51.089Z,981.98
2018-03-16T05:03:57.243Z,981.95
2018-03-16T05:05:03.389Z,981.92
2018-03-16T05:06:09.022Z,981.93
2018-03-16T05:07:15.677Z,981.95
2018-03-16T05:08:22.800Z,982.00
2018-03-16T05:09:27.944Z,982.02
2018-03-16T05:10:34.069Z,982.04
2018-03-16T05:11:40.247Z,982.04
2018-03-16T05:12:46.375Z,982.05
2018-03-16T05:13:52.487Z,982.03
2018-03-16T05:14:58.630Z,982.04
2018-03-16T05:16:04.765Z,982.08
2018-03-16T05:17:10.965Z,982.08
2018-03-16T05:18:17.054Z,982.07
2018-03-16T05:19:23.215Z,982.11
2018-03-16T05:20:29.345Z,982.12
2018-03-16T05:21:35.494Z,982.12
2018-03-16T05:22:41.654Z,982.07
2018-03-16T05:23:47.760Z,982.10
2018-03-16T05:24:53.896Z,982.15
2018-03-16T05:26:00.060Z,982.12
2018-03-16T05:27:06.208Z,982.16
2018-03-16T05:28:12.340Z,982.15
2018-03-16T05:29:18.471Z,982.18
2018-03-16T05:30:24.633Z,982.16
2018-03-16T05:31:30.758Z,982.16
2018-03-16T05:32:36.984Z,982.22
2018-03-16T05:33:43.037Z,982.21
2018-03-16T05:34:49.637Z,982.22
2018-03-16T05:35:55.311Z,982.26
2018-03-16T05:37:01.480Z,982.22
2018-03-16T05:38:07.610Z,982.20
2018-03-16T05:39:13.753Z,982.21
2018-03-16T05:40:19.903Z,982.24
2018-03-16T05:41:26.037Z,982.25
2018-03-16T05:42:32.208Z,982.24
2018-03-16T05:43:38.329Z,982.28
2018-03-16T05:44:44.470Z,982.28
2018-03-16T05:45:51.592Z,982.23
2018-03-16T05:46:56.778Z,982.26
2018-03-16T05:48:02.929Z,982.25
2018-03-16T05:49:09.089Z,982.28
2018-03-16T05:50:15.185Z,982.28
2018-03-16T05:51:21.336Z,982.32
2018-03-16T05:52:27.485Z,982.33
2018-03-16T05:53:33.609Z,982.31
2018-03-16T05:54:39.773Z,982.35
2018-03-16T05:55:45.923Z,982.38
2018-03-16T05:56:52.086Z,982.37
2018-03-16T05:57:58.196Z,982.35
2018-03-16T05:59:04.353Z,982.32
2018-03-16T06:00:11.505Z,982.33
2018-03-16T06:01:16.642Z,982.37
2018-03-16T06:02:22.827Z,982.37
2018-03-16T06:03:28.952Z,982.32
2018-03-16T06:04:35.101Z,982.32
2018-03-16T06:05:41.240Z,982.38
2018-03-16T06:06:47.394Z,982.35
2018-03-16T06:07:53.581Z,982.30
2018-03-16T06:08:59.717Z,982.34
2018-03-16T06:10:06.942Z,982.35
2018-03-16T06:11:12.006Z,982.38
2018-03-16T06:12:18.176Z,982.40
2018-03-16T06:13:24.312Z,982.38
2018-03-16T06:14:30.487Z,982.40
2018-03-16T06:15:36.606Z,982.38
2018-03-16T06:16:42.256Z,982.39
2018-03-16T06:17:48.961Z,982.37
2018-03-16T06:18:55.069Z,982.40
2018-03-16T06:20:01.219Z,982.41
2018-03-16T06:21:07.369Z,982.44
2018-03-16T06:22:13.044Z,982.45
2018-03-16T06:23:19.672Z,982.44
2018-03-16T06:24:25.938Z,982.42
2018-03-16T06:25:31.992Z,982.44
2018-03-16T06:26:38.137Z,982.39
2018-03-16T06:27:44.325Z,982.47
2018-03-16T06:28:50.461Z,982.43
2018-03-16T06:29:56.629Z,982.45
2018-03-16T06:31:02.811Z,982.49
2018-03-16T06:32:08.972Z,982.49
2018-03-16T06:33:15.098Z,982.48
2018-03-16T06:34:22.246Z,982.45
2018-03-16T06:35:27.430Z,982.53
2018-03-16T06:36:33.589Z,982.58
2018-03-16T06:37:40.762Z,982.58
2018-03-16T06:38:46.936Z,982.57
2018-03-16T06:39:52.064Z,982.59
2018-03-16T06:40:58.215Z,982.59
2018-03-16T06:42:04.392Z,982.65
2018-03-16T06:43:10.548Z,982.62
2018-03-16T06:44:16.206Z,982.66
2018-03-16T06:45:22.933Z,982.68
2018-03-16T06:46:30.000Z,982.76
2018-03-16T06:47:35.233Z,982.68
2018-03-16T06:48:41.348Z,982.71
2018-03-16T06:49:47.493Z,982.71
2018-03-16T06:50:53.655Z,982.75
2018-03-16T06:51:59.819Z,982.76
2018-03-16T06:53:06.000Z,982.77
2018-03-16T06:54:11.850Z,982.79
2018-03-16T06:55:18.311Z,982.79
2018-03-16T06:56:24.448Z,982.80
2018-03-16T06:57:30.653Z,982.81
2018-03-16T06:58:36.791Z,982.84
2018-03-16T06:59:42.942Z,982.82
2018-03-16T07:00:48.610Z,982.84
2018-03-16T07:01:55.277Z,982.83
2018-03-16T07:03:01.449Z,982.85
2018-03-16T07:04:07.574Z,982.84
2018-03-16T07:05:14.306Z,982.88
2018-03-16T07:06:19.903Z,982.86
2018-03-16T07:07:26.084Z,982.90
2018-03-16T07:08:32.341Z,982.92
2018-03-16T07:09:38.396Z,982.92
2018-03-16T07:10:44.535Z,982.94
2018-03-16T07:11:50.706Z,982.92
2018-03-16T07:12:58.198Z,982.95
2018-03-16T07:14:03.032Z,982.95
2018-03-16T07:15:08.711Z,982.93
2018-03-16T07:16:15.462Z,983.00
2018-03-16T07:17:21.523Z,982.99
2018-03-16T07:18:27.805Z,983.01
2018-03-16T07:22:27.608Z,983.05
2018-03-16T07:23:33.228Z,983.10
2018-03-16T07:24:39.909Z,983.05
2018-03-16T07:25:46.044Z,983.07
2018-03-16T07:26:52.205Z,983.12
2018-03-16T07:27:57.898Z,983.10
2018-03-16T07:29:04.538Z,983.09
2018-03-16T07:30:10.208Z,983.12
2018-03-16T07:31:16.939Z,983.15
2018-03-16T07:32:22.549Z,983.13
2018-03-16T07:33:28.705Z,983.13
2018-03-16T07:34:34.960Z,983.18
2018-03-16T07:35:41.539Z,983.18
2018-03-16T07:36:47.695Z,983.18
2018-03-16T07:37:53.444Z,983.20
2018-03-16T07:38:59.551Z,983.19
2018-03-16T07:40:06.187Z,983.20
2018-03-16T07:41:11.876Z,983.22
2018-03-16T07:42:18.050Z,983.24
2018-03-16T07:43:24.191Z,983.22
2018-03-16T07:44:30.349Z,983.27
2018-03-16T07:45:37.009Z,983.25
2018-03-16T07:46:43.189Z,983.26
2018-03-16T07:47:49.384Z,983.26
2018-03-16T07:48:55.539Z,983.27
2018-03-16T07:50:01.587Z,983.27
2018-03-16T07:51:07.359Z,983.29
2018-03-16T07:52:14.013Z,983.32
2018-03-16T07:53:20.236Z,983.33
2018-03-16T07:54:26.344Z,983.34
2018-03-16T07:55:32.028Z,983.34
2018-03-16T07:56:38.689Z,983.36
2018-03-16T07:57:45.801Z,983.37
2018-03-16T07:58:51.008Z,983.40
2018-03-16T07:59:57.175Z,983.35
2018-03-16T08:01:04.330Z,983.42
2018-03-16T08:02:09.519Z,983.39
2018-03-16T08:03:15.230Z,983.43
2018-03-16T08:04:21.346Z,983.44
2018-03-16T08:05:27.532Z,983.44
2018-03-16T08:06:33.723Z,983.50
2018-03-16T08:07:40.371Z,983.47
2018-03-16T08:08:46.089Z,983.48
2018-03-16T08:09:52.712Z,983.51
2018-03-16T08:10:58.376Z,983.52
2018-03-16T08:12:05.021Z,983.52
2018-03-16T08:13:10.728Z,983.52
2018-03-16T08:14:17.019Z,983.55
2018-03-16T08:15:23.552Z,983.54
2018-03-16T08:16:29.216Z,983.54
2018-03-16T08:17:35.936Z,983.58
2018-03-16T08:18:41.636Z,983.60
2018-03-16T08:19:47.726Z,983.62
2018-03-16T08:20:54.436Z,983.59
2018-03-16T08:22:00.071Z,983.60
2018-03-16T08:23:06.764Z,983.62
2018-03-16T08:24:13.313Z,983.59
2018-03-16T08:25:19.334Z,983.63
2018-03-16T08:27:31.456Z,983.63
2018-03-16T08:28:37.604Z,983.63
2018-03-16T08:29:44.346Z,983.68
2018-03-16T08:30:51.053Z,983.66
2018-03-16T08:31:55.632Z,983.68
2018-03-16T08:33:02.309Z,983.68
2018-03-16T08:34:07.978Z,983.69
2018-03-16T08:35:14.636Z,983.64
2018-03-16T08:36:20.328Z,983.71
2018-03-16T08:38:32.675Z,983.69
2018-03-16T08:39:38.825Z,983.68
2018-03-16T08:40:45.003Z,983.69
2018-03-16T08:41:51.665Z,983.68
2018-03-16T08:42:57.346Z,983.70
2018-03-16T08:44:03.990Z,983.70
2018-03-16T08:45:10.172Z,983.68
2018-03-16T08:46:16.346Z,983.69
2018-03-16T08:47:22.499Z,983.70
2018-03-16T08:48:28.709Z,983.69
2018-03-16T08:49:34.353Z,983.70
2018-03-16T08:50:41.027Z,983.71
2018-03-16T08:51:47.202Z,983.71
2018-03-16T08:52:53.388Z,983.70
2018-03-16T08:53:59.038Z,983.71
2018-03-16T08:55:05.710Z,983.67
2018-03-16T08:56:11.378Z,983.68
2018-03-16T08:57:18.051Z,983.69
2018-03-16T08:58:23.744Z,983.68
2018-03-16T08:59:29.899Z,983.71
2018-03-16T09:00:36.063Z,983.69
2018-03-16T09:01:43.030Z,983.69
2018-03-16T09:02:48.442Z,983.72
2018-03-16T09:03:54.577Z,983.73
2018-03-16T09:05:01.240Z,983.74
2018-03-16T09:06:07.418Z,983.74
2018-03-16T09:07:13.092Z,983.74
2018-03-16T09:08:19.782Z,983.73
2018-03-16T09:09:25.450Z,983.74
2018-03-16T09:10:31.626Z,983.75
2018-03-16T09:11:37.871Z,983.75
2018-03-16T09:12:44.477Z,983.76
2018-03-16T09:13:50.147Z,983.81
2018-03-16T09:14:56.336Z,983.80
2018-03-16T09:16:03.002Z,983.81
2018-03-16T09:17:09.168Z,983.82
2018-03-16T09:18:14.975Z,983.79
2018-03-16T09:19:21.046Z,983.79
2018-03-16T09:20:27.219Z,983.78
2018-03-16T09:21:33.427Z,983.79
2018-03-16T09:22:39.656Z,983.79
2018-03-16T09:23:46.277Z,983.80
2018-03-16T09:24:51.951Z,983.83
2018-03-16T09:25:58.434Z,983.82
2018-03-16T09:27:04.321Z,983.78
2018-03-16T09:28:10.526Z,983.79
2018-03-16T09:29:16.680Z,983.79
2018-03-16T09:30:22.853Z,983.82
2018-03-16T09:31:29.544Z,983.82
2018-03-16T09:32:35.257Z,983.78
2018-03-16T09:33:41.425Z,983.78
2018-03-16T09:34:47.596Z,983.83
2018-03-16T09:35:54.285Z,983.81
2018-03-16T09:37:00.482Z,983.80
2018-03-16T09:38:07.174Z,983.84
2018-03-16T09:39:12.324Z,983.86
2018-03-16T09:40:19.008Z,983.83
2018-03-16T09:41:24.722Z,983.89
2018-03-16T09:42:30.958Z,983.87
2018-03-16T09:43:37.561Z,983.88
2018-03-16T09:44:44.918Z,983.87
2018-03-16T09:48:02.578Z,983.85
2018-03-16T09:49:08.058Z,983.85
2018-03-16T09:52:26.808Z,983.91
2018-03-16T09:53:32.907Z,983.91
2018-03-16T09:54:39.317Z,983.88
2018-03-16T09:55:45.002Z,983.93
2018-03-16T09:56:51.192Z,983.90
2018-03-16T09:57:57.372Z,983.93
2018-03-16T09:59:03.548Z,983.95
2018-03-16T10:00:09.782Z,983.97
2018-03-16T10:01:15.882Z,983.95
2018-03-16T10:02:22.552Z,983.94
2018-03-16T10:03:29.746Z,983.96
2018-03-16T10:04:34.980Z,983.99
2018-03-16T10:05:40.608Z,983.99
2018-03-16T10:06:47.229Z,983.98
2018-03-16T10:07:52.962Z,984.00
2018-03-16T10:08:59.120Z,984.02
2018-03-16T10:10:05.303Z,984.00
2018-03-16T10:11:11.475Z,984.06
2018-03-16T10:12:18.171Z,984.06
2018-03-16T10:13:24.340Z,984.06
2018-03-16T10:14:30.038Z,984.06
2018-03-16T10:15:36.714Z,984.07
2018-03-16T10:16:42.391Z,984.09
2018-03-16T10:17:49.090Z,984.09
2018-03-16T10:18:55.267Z,984.10
2018-03-16T10:20:00.935Z,984.08
2018-03-16T10:21:07.611Z,984.07
2018-03-16T10:22:13.297Z,984.07
2018-03-16T10:23:19.490Z,984.12
2018-03-16T10:24:25.680Z,984.10
2018-03-16T10:25:31.851Z,984.09
2018-03-16T10:26:39.509Z,984.10
2018-03-16T10:27:44.383Z,984.08
2018-03-16T10:28:50.403Z,984.11
2018-03-16T10:29:57.057Z,984.11
2018-03-16T10:31:02.725Z,984.11
2018-03-16T10:32:09.420Z,984.13
2018-03-16T10:33:15.123Z,984.13
2018-03-16T10:34:21.263Z,984.14
2018-03-16T10:35:27.432Z,984.16
2018-03-16T10:36:34.124Z,984.14
2018-03-16T10:37:40.292Z,984.17
2018-03-16T10:38:46.491Z,984.15
2018-03-16T10:39:52.898Z,984.17
2018-03-16T10:42:05.015Z,984.18
2018-03-16T10:43:10.706Z,984.16
2018-03-16T10:44:16.956Z,984.15
2018-03-16T10:45:23.044Z,984.17
2018-03-16T10:46:29.219Z,984.17
2018-03-16T10:47:35.827Z,984.19
2018-03-16T10:49:48.262Z,984.26
2018-03-16T10:50:53.932Z,984.28
2018-03-16T10:52:01.199Z,984.33
2018-03-16T10:54:13.013Z,984.29
2018-03-16T10:55:18.624Z,984.26
2018-03-16T10:56:24.793Z,984.29
2018-03-16T10:57:31.466Z,984.28
2018-03-16T10:58:37.182Z,984.27
2018-03-16T10:59:43.888Z,984.25
2018-03-16T11:00:49.510Z,984.28
2018-03-16T11:01:55.686Z,984.31
2018-03-16T11:03:01.868Z,984.29
2018-03-16T11:04:08.104Z,984.27
2018-03-16T11:05:14.362Z,984.33
2018-03-16T11:06:20.414Z,984.31
2018-03-16T11:07:27.616Z,984.33
2018-03-16T11:08:32.989Z,984.30
2018-03-16T11:09:39.000Z,984.32
2018-03-16T11:10:45.288Z,984.38
2018-03-16T11:11:52.046Z,984.38
2018-03-16T11:12:57.588Z,984.35
2018-03-16T11:14:04.287Z,984.34
2018-03-16T11:15:09.958Z,984.35
2018-03-16T11:16:16.645Z,984.37
2018-03-16T11:17:22.845Z,984.39
2018-03-16T11:18:28.549Z,984.40
2018-03-16T11:19:34.723Z,984.36
2018-03-16T11:20:40.912Z,984.40
2018-03-16T11:21:47.099Z,984.42
2018-03-16T11:22:53.290Z,984.40
2018-03-16T11:23:59.505Z,984.46
2018-03-16T11:25:06.167Z,984.53
2018-03-16T11:26:12.355Z,984.47
2018-03-16T11:27:18.052Z,984.53
2018-03-16T11:28:24.254Z,984.52
2018-03-16T11:29:30.924Z,984.49
2018-03-16T11:30:36.614Z,984.47
2018-03-16T11:31:42.804Z,984.46
2018-03-16T11:32:48.992Z,984.43
2018-03-16T11:33:55.690Z,984.44
2018-03-16T11:35:01.403Z,984.42
2018-03-16T11:36:08.158Z,984.44
2018-03-16T11:37:13.768Z,984.46
2018-03-16T11:38:19.984Z,984.48
2018-03-16T11:39:26.202Z,984.49
2018-03-16T11:40:32.883Z,984.44
2018-03-16T11:41:38.574Z,984.46
2018-03-16T11:42:45.297Z,984.47
2018-03-16T11:43:51.494Z,984.46
2018-03-16T11:44:57.682Z,984.49
2018-03-16T11:46:03.387Z,984.48
2018-03-16T11:47:10.152Z,984.49
2018-03-16T11:48:16.835Z,984.45
2018-03-16T11:49:23.511Z,984.49
2018-03-16T11:50:28.707Z,984.42
2018-03-16T11:51:34.917Z,984.44
2018-03-16T11:52:41.133Z,984.51
2018-03-16T11:53:47.328Z,984.46
2018-03-16T11:54:53.020Z,984.46
2018-03-16T11:55:59.747Z,984.47
2018-03-16T11:57:05.446Z,984.49
2018-03-16T11:58:11.621Z,984.54
2018-03-16T11:59:18.318Z,984.52
2018-03-16T12:00:24.486Z,984.51
2018-03-16T12:01:30.675Z,984.46
2018-03-16T12:02:36.855Z,984.49
2018-03-16T12:03:43.070Z,984.52
2018-03-16T12:04:49.265Z,984.50
2018-03-16T12:05:55.430Z,984.51
2018-03-16T12:07:01.598Z,984.57
2018-03-16T12:08:07.785Z,984.52
2018-03-16T12:09:14.993Z,984.53
2018-03-16T12:10:20.137Z,984.53
2018-03-16T12:11:26.301Z,984.60
2018-03-16T12:12:32.485Z,984.59
2018-03-16T12:13:38.667Z,984.52
2018-03-16T12:14:44.868Z,984.57
2018-03-16T12:15:51.013Z,984.55
2018-03-16T12:16:57.188Z,984.52
2018-03-16T12:18:03.351Z,984.53
2018-03-16T12:19:09.576Z,984.53
2018-03-16T12:20:15.722Z,984.57
2018-03-16T12:21:21.937Z,984.54
2018-03-16T12:22:29.056Z,984.53
2018-03-16T12:23:34.303Z,984.54
2018-03-16T12:24:40.438Z,984.51
2018-03-16T12:25:46.616Z,984.56
2018-03-16T12:26:52.791Z,984.52
2018-03-16T12:27:58.977Z,984.53
2018-03-16T12:29:05.199Z,984.53
2018-03-16T12:30:11.349Z,984.57
2018-03-16T12:31:17.512Z,984.55
2018-03-16T12:32:23.700Z,984.55
2018-03-16T12:33:29.964Z,984.53
2018-03-16T12:34:36.057Z,984.57
2018-03-16T12:35:42.242Z,984.57
2018-03-16T12:36:48.440Z,984.56
2018-03-16T12:37:54.621Z,984.49
2018-03-16T12:39:00.803Z,984.56
2018-03-16T12:40:06.928Z,984.53
2018-03-16T12:41:13.125Z,984.55
2018-03-16T12:42:20.278Z,984.57
2018-03-16T12:43:25.447Z,984.57
2018-03-16T12:44:31.696Z,984.54
2018-03-16T12:45:37.771Z,984.54
2018-03-16T12:46:43.938Z,984.55
2018-03-16T12:47:50.131Z,984.53
2018-03-16T12:48:56.302Z,984.53
2018-03-16T12:50:02.621Z,984.53
2018-03-16T12:51:08.615Z,984.56
2018-03-16T12:52:14.830Z,984.55
2018-03-16T12:53:20.518Z,984.55
2018-03-16T12:54:27.261Z,984.59
2018-03-16T12:55:33.349Z,984.57
2018-03-16T12:56:39.494Z,984.55
2018-03-16T12:57:45.630Z,984.57
2018-03-16T12:58:51.867Z,984.59
2018-03-16T12:59:57.977Z,984.58
2018-03-16T13:01:04.142Z,984.57
2018-03-16T13:02:10.336Z,984.60
2018-03-16T13:03:16.472Z,984.61
2018-03-16T13:04:22.677Z,984.57
2018-03-16T13:05:28.807Z,984.60
2018-03-16T13:06:35.970Z,984.59
2018-03-16T13:07:41.135Z,984.58
2018-03-16T13:08:48.346Z,984.62
2018-03-16T13:09:53.514Z,984.60
2018-03-16T13:10:59.663Z,984.53
2018-03-16T13:12:05.873Z,984.53
2018-03-16T13:13:11.953Z,984.59
2018-03-16T13:14:18.142Z,984.56
2018-03-16T13:15:25.302Z,984.61
2018-03-16T13:16:30.507Z,984.58
2018-03-16T13:17:37.623Z,984.63
2018-03-16T13:18:42.808Z,984.54
2018-03-16T13:19:48.939Z,984.52
2018-03-16T13:20:54.613Z,984.52
2018-03-16T13:22:01.272Z,984.55
2018-03-16T13:23:07.426Z,984.52
2018-03-16T13:24:13.672Z,984.53
2018-03-16T13:25:19.757Z,984.50
2018-03-16T13:26:25.947Z,984.53
2018-03-16T13:27:32.093Z,984.57
2018-03-16T13:28:38.279Z,984.59
2018-03-16T13:29:44.398Z,984.63
2018-03-16T13:30:50.591Z,984.52
2018-03-16T13:31:56.749Z,984.56
2018-03-16T13:33:02.915Z,984.66
2018-03-16T13:34:09.054Z,984.58
2018-03-16T13:35:15.193Z,984.64
2018-03-16T13:36:21.369Z,984.64
2018-03-16T13:37:28.527Z,984.64
2018-03-16T13:38:33.720Z,984.68
2018-03-16T13:39:39.830Z,984.64
2018-03-16T13:40:45.986Z,984.67
2018-03-16T13:41:52.135Z,984.68
2018-03-16T13:42:58.280Z,984.68
2018-03-16T13:44:04.792Z,984.71
2018-03-16T13:45:10.589Z,984.77
2018-03-16T13:46:17.772Z,984.76
2018-03-16T13:47:23.945Z,984.79
2018-03-16T13:48:29.063Z,984.78
2018-03-16T13:49:35.238Z,984.78
2018-03-16T13:50:41.344Z,984.83
2018-03-16T13:51:48.795Z,984.79
2018-03-16T13:52:53.658Z,984.81
2018-03-16T13:53:59.829Z,984.80
2018-03-16T13:55:05.975Z,984.85
2018-03-16T13:56:12.417Z,984.81
2018-03-16T13:57:18.761Z,984.82
2018-03-16T13:58:24.406Z,984.84
2018-03-16T13:59:30.583Z,984.81